Time;durP1;ratioP1;P1;durP2;ratioP2;P2;SDS_P1;SDS_P2;PMS_P1;PMS_P2;Temp;Humidity;BMP_temperature;BMP_pressure;BME280_temperature;BME280_humidity;BME280_pressure;Samples;Min_cycle;Max_cycle;Signal;HPM_P1;HPM_P2
2023/04/09 00:03:55;;;;;;;4.53;2.10;;;;;;;18.79;35.18;102443.28;16122940;19;129589;-47
2023/04/09 00:09:17;;;;;;;4.57;2.22;;;;;;;18.77;35.39;102426.84;16121381;19;130816;-47
2023/04/09 00:14:39;;;;;;;3.60;2.40;;;;;;;18.74;35.51;102427.28;16119200;19;130784;-46
2023/04/09 00:20:01;;;;;;;4.03;2.38;;;;;;;18.71;35.25;102425.78;16122317;19;129254;-46
2023/04/09 00:25:23;;;;;;;3.92;2.67;;;;;;;18.71;35.34;102424.94;16119098;19;130468;-43
2023/04/09 00:30:45;;;;;;;3.83;2.50;;;;;;;18.69;35.44;102425.16;16122152;19;131131;-44
2023/04/09 00:36:07;;;;;;;3.88;2.90;;;;;;;18.67;35.41;102418.97;16119826;19;129381;-43
2023/04/09 00:41:29;;;;;;;3.50;3.00;;;;;;;18.66;35.60;102421.91;16115685;19;130387;-46
2023/04/09 00:46:52;;;;;;;4.82;2.65;;;;;;;18.66;35.31;102416.38;16119415;19;129704;-43
2023/04/09 00:52:15;;;;;;;4.35;2.60;;;;;;;18.64;35.21;102408.28;16106503;19;130562;-46
2023/04/09 00:57:37;;;;;;;2.88;2.17;;;;;;;18.64;35.52;102407.44;16116094;19;129638;-46
2023/04/09 01:02:59;;;;;;;2.85;2.30;;;;;;;18.63;35.74;102406.56;16112790;19;130278;-46
2023/04/09 01:09:10;;;;;;;2.78;1.90;;;;;;;18.61;35.39;102397.59;16113453;19;130893;-47
2023/04/09 01:14:55;;;;;;;4.80;2.60;;;;;;;18.63;35.36;102394.66;16116577;19;130799;-43
2023/04/09 01:20:34;;;;;;;2.40;2.00;;;;;;;18.60;35.76;102391.22;16119684;19;131152;-44
2023/04/09 01:26:14;;;;;;;3.22;2.60;;;;;;;18.56;35.92;102384.38;16114123;19;130918;-43
2023/04/09 01:31:38;;;;;;;4.18;2.33;;;;;;;18.55;35.92;102387.38;16115679;19;129632;-45
2023/04/09 01:37:02;;;;;;;3.20;2.90;;;;;;;18.53;35.50;102393.13;16113385;19;130167;-45
2023/04/09 01:42:25;;;;;;;3.58;3.10;;;;;;;18.52;35.60;102398.88;16110262;19;131334;-45
2023/04/09 01:47:47;;;;;;;4.22;3.40;;;;;;;18.50;35.98;102392.69;16112501;19;132498;-45
2023/04/09 01:53:09;;;;;;;3.33;3.00;;;;;;;18.48;35.99;102394.81;16103849;19;131346;-43
2023/04/09 01:58:33;;;;;;;5.55;3.47;;;;;;;18.47;35.67;102391.19;16114063;19;129458;-46
2023/04/09 02:04:02;;;;;;;4.85;3.30;;;;;;;18.47;35.81;102396.75;16111907;19;130073;-44
2023/04/09 02:09:28;;;;;;;4.75;3.83;;;;;;;18.46;36.00;102395.88;16113461;19;130861;-46
2023/04/09 02:14:51;;;;;;;4.72;3.47;;;;;;;18.44;36.08;102391.59;16109486;19;130012;-44
2023/04/09 02:20:19;;;;;;;4.95;4.25;;;;;;;18.45;36.00;102388.66;16110184;19;129969;-43
2023/04/09 02:25:40;;;;;;;7.57;5.90;;;;;;;18.41;35.85;102379.03;16113018;19;129415;-44
2023/04/09 02:31:03;;;;;;;5.93;4.57;;;;;;;18.40;36.11;102382.88;16109671;19;129857;-43
2023/04/09 02:36:26;;;;;;;5.05;4.32;;;;;;;18.39;35.76;102375.63;16111082;19;130341;-43
2023/04/09 02:41:49;;;;;;;3.90;3.50;;;;;;;18.38;35.72;102373.03;16109552;19;129841;-45
2023/04/09 02:47:10;;;;;;;4.95;4.28;;;;;;;18.35;35.78;102360.44;16107470;19;129344;-44
2023/04/09 02:52:33;;;;;;;4.25;3.85;;;;;;;18.35;36.14;102365.13;16114676;19;129925;-45
2023/04/09 02:57:54;;;;;;;5.00;4.45;;;;;;;18.33;35.81;102362.59;16123699;19;129333;-43
2023/04/09 03:03:16;;;;;;;5.70;5.20;;;;;;;18.30;36.05;102352.75;16126304;19;129425;-43
2023/04/09 03:08:38;;;;;;;6.18;4.57;;;;;;;18.29;36.07;102355.75;16123244;19;130494;-45
2023/04/09 03:14:00;;;;;;;5.32;4.80;;;;;;;18.28;36.23;102356.81;16121136;19;130391;-45
2023/04/09 03:19:22;;;;;;;5.05;4.55;;;;;;;18.28;35.99;102348.50;16119995;19;135225;-46
2023/04/09 03:24:44;;;;;;;5.63;5.05;;;;;;;18.27;35.84;102341.25;16124590;19;129213;-45
2023/04/09 03:30:07;;;;;;;5.50;4.97;;;;;;;18.25;36.15;102329.50;16121971;19;130972;-48
2023/04/09 03:35:29;;;;;;;6.47;5.32;;;;;;;18.23;36.02;102329.72;16123672;19;129351;-47
2023/04/09 03:40:51;;;;;;;5.85;5.25;;;;;;;18.23;35.82;102326.97;16125550;19;129686;-46
2023/04/09 03:46:14;;;;;;;5.82;5.18;;;;;;;18.22;36.13;102316.06;16123421;19;131523;-44
2023/04/09 03:51:36;;;;;;;5.55;4.97;;;;;;;18.20;36.24;102324.59;16122845;19;130644;-45
2023/04/09 03:56:58;;;;;;;5.75;5.15;;;;;;;18.20;36.38;102318.22;16121524;19;129236;-44
2023/04/09 04:02:20;;;;;;;5.65;5.03;;;;;;;18.19;35.93;102313.75;16121587;19;129225;-46
2023/04/09 04:07:42;;;;;;;5.30;4.80;;;;;;;18.18;36.14;102312.88;16119164;19;130023;-44
2023/04/09 04:13:07;;;;;;;6.07;5.20;;;;;;;18.19;36.14;102319.28;16121959;19;131338;-44
2023/04/09 04:18:29;;;;;;;5.85;5.25;;;;;;;18.17;36.15;102315.88;16119683;19;131432;-44
2023/04/09 04:23:51;;;;;;;5.22;4.65;;;;;;;18.17;35.96;102318.63;16120822;19;131843;-44
2023/04/09 04:29:13;;;;;;;6.18;5.57;;;;;;;18.15;36.17;102311.38;16119754;19;130314;-44
2023/04/09 04:34:35;;;;;;;5.22;4.70;;;;;;;18.14;36.07;102315.22;16117269;19;129409;-44
2023/04/09 04:39:57;;;;;;;5.10;4.60;;;;;;;18.14;36.29;102323.53;16117220;19;130407;-43
2023/04/09 04:45:19;;;;;;;4.82;4.32;;;;;;;18.14;36.36;102322.69;16116002;19;130531;-45
2023/04/09 04:50:41;;;;;;;5.30;4.80;;;;;;;18.12;36.49;102328.41;16117905;19;130357;-43
2023/04/09 04:56:03;;;;;;;5.07;4.57;;;;;;;18.12;36.14;102327.56;16121098;19;129647;-43
2023/04/09 05:01:25;;;;;;;5.63;4.47;;;;;;;18.11;36.16;102325.88;16113603;19;129855;-46
2023/04/09 05:06:47;;;;;;;5.10;4.60;;;;;;;18.09;36.13;102334.34;16119406;19;129225;-43
2023/04/09 05:12:09;;;;;;;5.53;4.93;;;;;;;18.08;36.30;102332.69;16114780;19;131661;-44
2023/04/09 05:17:31;;;;;;;5.38;4.88;;;;;;;18.07;36.54;102335.63;16117627;19;132547;-43
2023/04/09 05:22:53;;;;;;;6.80;5.50;;;;;;;18.05;36.54;102332.22;16117160;19;130975;-45
2023/04/09 05:28:15;;;;;;;5.20;4.70;;;;;;;18.04;36.12;102334.16;16115972;19;130012;-44
2023/04/09 05:33:41;;;;;;;5.75;4.78;;;;;;;18.05;36.60;102326.69;16115731;19;130969;-43
2023/04/09 05:39:03;;;;;;;;;;;;;;;18.02;36.56;102327.97;16114221;19;130040;-44
2023/04/09 05:44:25;;;;;;;5.75;4.95;;;;;;;18.09;36.12;102323.28;16114700;19;130280;-44
2023/04/09 05:49:47;;;;;;;4.80;4.30;;;;;;;18.23;36.52;102323.31;16115498;19;130602;-48
2023/04/09 05:55:09;;;;;;;4.47;3.88;;;;;;;18.58;36.22;102328.75;16110325;19;129490;-44
2023/04/09 06:00:31;;;;;;;4.45;4.05;;;;;;;;;;16114495;19;130831;-43
2023/04/09 06:05:53;;;;;;;4.32;3.92;;;;;;;19.20;35.45;102318.28;16112218;19;129762;-45
2023/04/09 06:11:15;;;;;;;4.10;3.70;;;;;;;19.38;34.96;102322.34;16112574;19;129538;-43
2023/04/09 06:16:37;;;;;;;4.35;3.70;;;;;;;19.44;34.96;102329.78;16110317;19;129703;-44
2023/04/09 06:21:59;;;;;;;12.93;5.90;;;;;;;19.52;34.91;102337.00;16110513;19;129471;-46
2023/04/09 06:27:21;;;;;;;16.15;8.35;;;;;;;19.54;34.63;102343.19;16120514;19;131947;-48
2023/04/09 06:32:44;;;;;;;18.20;8.30;;;;;;;19.58;34.27;102351.94;16124023;19;130806;-44
2023/04/09 06:38:16;;;;;;;14.57;8.43;;;;;;;19.59;34.18;102348.94;16120986;19;130524;-47
2023/04/09 06:43:39;;;;;;;15.65;8.15;;;;;;;19.59;34.60;102354.47;16123174;19;131056;-44
2023/04/09 06:49:01;;;;;;;18.98;8.65;;;;;;;19.59;34.26;102360.03;16125968;19;129523;-47
2023/04/09 06:54:24;;;;;;;22.50;8.15;;;;;;;19.57;34.80;102367.72;16124329;19;130617;-50
2023/04/09 06:59:45;;;;;;;18.85;7.70;;;;;;;19.57;34.67;102364.94;16124967;19;131239;-47
2023/04/09 07:05:08;;;;;;;12.68;7.35;;;;;;;19.59;34.71;102354.47;16122764;19;136401;-49
2023/04/09 07:10:30;;;;;;;19.08;8.95;;;;;;;19.60;34.42;102360.91;16121863;19;129304;-47
2023/04/09 07:15:52;;;;;;;16.25;9.23;;;;;;;19.61;34.42;102360.69;16126130;19;129392;-46
2023/04/09 07:21:14;;;;;;;21.73;9.00;;;;;;;19.63;34.71;102357.69;16120663;19;129795;-45
2023/04/09 07:26:36;;;;;;;11.70;8.13;;;;;;;19.67;34.58;102362.59;16121420;19;129772;-44
2023/04/09 07:31:59;;;;;;;15.90;8.32;;;;;;;19.76;34.43;102368.75;16120187;19;131102;-47
2023/04/09 07:37:22;;;;;;;26.77;9.10;;;;;;;19.82;34.69;102364.22;16115305;19;130992;-46
2023/04/09 07:42:44;;;;;;;18.13;8.98;;;;;;;19.94;34.55;102368.03;16121952;19;130756;-45
2023/04/09 07:48:08;;;;;;;16.55;8.98;;;;;;;20.11;34.72;102359.22;16118590;19;131163;-48
2023/04/09 07:53:30;;;;;;;26.15;8.98;;;;;;;20.25;34.70;102360.88;16115968;19;130406;-49
2023/04/09 07:58:52;;;;;;;19.20;8.85;;;;;;;20.35;34.17;102368.72;16118793;19;130345;-47
2023/04/09 08:04:14;;;;;;;14.55;8.48;;;;;;;20.41;34.43;102362.25;16114256;19;129652;-48
2023/04/09 08:09:36;;;;;;;17.00;8.18;;;;;;;20.49;34.26;102363.09;16119821;19;129520;-45
2023/04/09 08:14:59;;;;;;;16.33;7.68;;;;;;;20.53;34.14;102359.63;16119904;19;130830;-44
2023/04/09 08:20:21;;;;;;;10.77;7.45;;;;;;;20.61;34.31;102350.16;16117744;19;131085;-48
2023/04/09 08:25:43;;;;;;;13.98;8.10;;;;;;;20.63;34.18;102349.94;16110128;19;132707;-51
2023/04/09 08:31:05;;;;;;;16.05;7.25;;;;;;;20.66;34.22;102352.28;16093653;19;131626;-44
2023/04/09 08:36:27;;;;;;;12.23;6.93;;;;;;;20.69;34.48;102349.00;16109749;19;131798;-49
2023/04/09 08:41:51;;;;;;;13.25;7.10;;;;;;;20.68;34.57;102359.31;16113438;19;132624;-48
2023/04/09 08:47:13;;;;;;;12.38;7.03;;;;;;;20.69;34.84;102351.78;16104792;19;130072;-46
2023/04/09 08:52:36;;;;;;;14.00;6.90;;;;;;;20.67;34.86;102357.59;16113335;19;130402;-48
2023/04/09 08:57:58;;;;;;;13.52;9.18;;;;;;;20.60;34.33;102354.88;16117091;19;129312;-47
2023/04/09 09:03:20;;;;;;;24.38;19.48;;;;;;;20.39;34.08;102344.94;16110476;19;130348;-48
2023/04/09 09:08:42;;;;;;;28.00;21.55;;;;;;;20.31;33.83;102347.16;16114773;19;130060;-47
2023/04/09 09:14:09;;;;;;;30.33;22.30;;;;;;;20.28;33.22;102332.63;16111160;19;130951;-49
2023/04/09 09:19:35;;;;;;;27.42;21.50;;;;;;;20.25;33.52;102346.97;16114402;19;132407;-49
2023/04/09 09:24:57;;;;;;;27.48;21.70;;;;;;;20.21;32.99;102334.59;16115864;19;130393;-45
2023/04/09 09:30:25;;;;;;;29.20;18.67;;;;;;;20.22;32.75;102335.47;16107004;19;130286;-47
2023/04/09 09:35:53;;;;;;;22.95;18.23;;;;;;;20.23;32.99;102335.22;16115864;19;130456;-49
2023/04/09 09:41:17;;;;;;;26.13;16.48;;;;;;;20.24;33.20;102336.09;16118795;19;129520;-49
2023/04/09 09:46:41;;;;;;;19.80;15.35;;;;;;;20.23;33.53;102332.44;16110570;19;129459;-46
2023/04/09 09:52:08;;;;;;;29.00;14.95;;;;;;;20.25;34.29;102330.31;16105219;19;130275;-47
2023/04/09 09:57:33;;;;;;;26.33;14.20;;;;;;;20.26;34.08;102329.22;16114713;19;130904;-48
2023/04/09 10:03:07;;;;;;;25.97;13.30;;;;;;;20.26;34.01;102318.13;16115702;19;129508;-46
2023/04/09 10:08:32;;;;;;;20.65;12.95;;;;;;;20.20;34.67;102299.53;16114752;19;129963;-45
2023/04/09 10:13:58;;;;;;;;;;;;;;;20.15;34.65;102296.59;16119110;19;129670;-47
2023/04/09 10:19:21;;;;;;;21.90;13.75;;;;;;;20.15;34.62;102291.03;16117223;19;129412;-49
2023/04/09 10:24:44;;;;;;;17.98;12.40;;;;;;;20.10;34.97;102282.50;16117353;19;130121;-49
2023/04/09 10:30:09;;;;;;;17.88;12.45;;;;;;;20.04;34.81;102291.75;16113194;19;130576;-46
2023/04/09 10:35:31;;;;;;;23.53;14.77;;;;;;;19.99;34.37;102287.72;16110823;19;129563;-49
2023/04/09 10:40:53;;;;;;;19.42;14.15;;;;;;;20.01;34.84;102276.34;16108159;19;130637;-49
2023/04/09 10:46:29;;;;;;;22.60;13.60;;;;;;;20.06;34.79;102275.72;16111576;19;131049;-47
2023/04/09 10:52:12;;;;;;;17.30;12.88;;;;;;;20.07;35.01;102266.28;16105653;19;129956;-48
2023/04/09 10:57:34;;;;;;;21.95;12.90;;;;;;;20.05;35.29;102263.75;16113457;19;131487;-46
2023/04/09 11:03:03;;;;;;;26.85;12.18;;;;;;;20.02;35.35;102260.56;16105405;19;129633;-52
2023/04/09 11:08:30;;;;;;;16.55;12.18;;;;;;;20.04;35.13;102261.19;16112820;19;131213;-46
2023/04/09 11:13:57;;;;;;;190.68;24.50;;;;;;;20.02;35.23;102253.06;16125607;19;130550;-47
2023/04/09 11:19:20;;;;;;;51.90;13.70;;;;;;;20.03;35.08;102240.03;16128302;19;129968;-49
2023/04/09 11:24:43;;;;;;;43.55;12.02;;;;;;;20.02;35.41;102241.13;16120325;19;130120;-48
2023/04/09 11:30:05;;;;;;;32.65;11.40;;;;;;;20.02;35.44;102238.34;16123651;19;130637;-46
2023/04/09 11:35:28;;;;;;;29.30;12.07;;;;;;;19.99;35.15;102237.72;16111897;19;131210;-52
2023/04/09 11:40:56;;;;;;;23.98;11.05;;;;;;;19.99;35.38;102236.84;16121026;19;131068;-50
2023/04/09 11:46:20;;;;;;;23.42;11.52;;;;;;;19.97;34.55;102234.25;16124677;19;130900;-50
2023/04/09 11:51:42;;;;;;;20.88;10.80;;;;;;;19.92;34.63;102239.66;16123416;19;129616;-47
2023/04/09 11:57:07;;;;;;;16.02;10.23;;;;;;;19.88;34.40;102230.06;16125921;19;129529;-46
2023/04/09 12:02:33;;;;;;;14.70;11.15;;;;;;;19.87;34.31;102228.34;16121717;19;130327;-51
2023/04/09 12:08:06;;;;;;;16.88;11.25;;;;;;;19.87;33.64;102228.34;16117880;19;131490;-51
2023/04/09 12:13:32;;;;;;;14.43;11.02;;;;;;;19.82;34.00;102211.50;16116122;19;130439;-51
2023/04/09 12:18:54;;;;;;;;;;;;;;;19.79;33.65;102214.75;16122163;19;129489;-47
2023/04/09 12:24:18;;;;;;;18.75;10.15;;;;;;;19.77;33.80;102212.16;16114036;19;131497;-48
2023/04/09 12:29:40;;;;;;;13.98;9.60;;;;;;;19.75;33.53;102214.34;16116376;19;130838;-48
2023/04/09 12:35:03;;;;;;;21.50;9.57;;;;;;;19.73;34.02;102218.38;16117030;19;130821;-53
2023/04/09 12:40:25;;;;;;;15.65;9.85;;;;;;;19.68;33.84;102211.59;16107928;19;131039;-49
2023/04/09 12:45:47;;;;;;;14.40;9.80;;;;;;;19.68;33.84;102208.81;16114725;19;130997;-48
2023/04/09 12:51:10;;;;;;;14.73;9.10;;;;;;;19.71;33.81;102204.75;16111657;19;129615;-47
2023/04/09 12:56:32;;;;;;;15.57;8.25;;;;;;;19.73;33.70;102215.63;16115497;19;130411;-47
2023/04/09 13:01:54;;;;;;;16.50;8.80;;;;;;;19.71;33.65;102198.31;16115035;19;131135;-45
2023/04/09 13:07:17;;;;;;;11.70;9.27;;;;;;;19.67;33.38;102207.13;16109997;19;129357;-51
2023/04/09 13:12:39;;;;;;;13.25;8.65;;;;;;;19.62;33.38;102197.75;16111701;19;131079;-49
2023/04/09 13:18:02;;;;;;;10.15;8.70;;;;;;;19.56;33.08;102199.50;16112877;19;130298;-49
2023/04/09 13:23:24;;;;;;;10.88;8.27;;;;;;;19.53;33.22;102202.72;16113941;19;129479;-48
2023/04/09 13:28:46;;;;;;;12.85;8.60;;;;;;;19.49;32.95;102198.66;16114681;19;129945;-46
2023/04/09 13:34:08;;;;;;;14.32;8.13;;;;;;;19.42;32.95;102181.19;16112809;19;130587;-47
2023/04/09 13:39:30;;;;;;;15.32;8.38;;;;;;;19.37;32.91;102179.09;16112635;19;131403;-47
2023/04/09 13:44:52;;;;;;;10.68;7.45;;;;;;;19.36;32.51;102161.56;16111771;19;130450;-47
2023/04/09 13:50:14;;;;;;;11.68;7.53;;;;;;;19.37;33.01;102159.66;16107007;19;130230;-45
2023/04/09 13:55:38;;;;;;;9.70;6.85;;;;;;;19.38;32.83;102162.22;16110789;19;130915;-50
2023/04/09 14:01:00;;;;;;;11.10;6.68;;;;;;;19.38;32.65;102159.44;16109013;19;129884;-48
2023/04/09 14:06:23;;;;;;;10.90;5.97;;;;;;;19.38;32.78;102153.88;16111443;19;130531;-49
2023/04/09 14:11:45;;;;;;;11.00;5.80;;;;;;;19.41;32.52;102151.75;16109091;19;130522;-51
2023/04/09 14:17:07;;;;;;;9.07;5.63;;;;;;;19.42;32.77;102142.34;16108183;19;129822;-49
2023/04/09 14:22:30;;;;;;;7.90;4.85;;;;;;;19.44;32.35;102137.44;16102972;19;130595;-49
2023/04/09 14:27:51;;;;;;;7.75;5.60;;;;;;;19.41;31.90;102129.53;16109003;19;130697;-45
2023/04/09 14:33:14;;;;;;;9.60;5.30;;;;;;;19.40;31.49;102122.28;16104025;19;130047;-49
2023/04/09 14:38:36;;;;;;;5.95;4.75;;;;;;;19.35;32.01;102117.41;16108233;19;130512;-48
2023/04/09 14:43:58;;;;;;;6.88;4.55;;;;;;;19.32;31.40;102110.38;16107096;19;135873;-48
2023/04/09 14:49:20;;;;;;;5.95;4.55;;;;;;;19.32;32.11;102104.81;16122624;19;130524;-50
2023/04/09 14:54:42;;;;;;;8.13;4.30;;;;;;;19.33;31.75;102094.59;16123823;19;129928;-49
2023/04/09 15:00:06;;;;;;;8.93;4.80;;;;;;;19.33;31.98;102083.47;16115513;19;130272;-46
2023/04/09 15:05:28;;;;;;;7.35;4.55;;;;;;;19.32;31.89;102077.06;16122027;19;131261;-47
2023/04/09 15:10:50;;;;;;;6.88;3.83;;;;;;;19.30;31.99;102067.28;16115248;19;131827;-48
2023/04/09 15:16:32;;;;;;;5.53;4.20;;;;;;;19.30;31.68;102067.28;16122640;19;130250;-49
2023/04/09 15:21:55;;;;;;;6.47;3.50;;;;;;;19.25;31.55;102069.88;16122264;19;129983;-46
2023/04/09 15:27:17;;;;;;;5.35;3.65;;;;;;;19.27;31.83;102078.81;16127262;19;129919;-49
2023/04/09 15:32:39;;;;;;;4.28;3.17;;;;;;;19.24;31.83;102071.78;16123789;19;129515;-47
2023/04/09 15:38:01;;;;;;;5.65;3.42;;;;;;;19.25;31.66;102079.03;16119677;19;131625;-48
2023/04/09 15:43:22;;;;;;;5.85;3.55;;;;;;;19.24;31.74;102066.25;16125970;19;131182;-48
2023/04/09 15:48:44;;;;;;;5.15;3.10;;;;;;;19.22;31.73;102065.59;16123562;19;130219;-49
2023/04/09 15:54:06;;;;;;;5.47;3.45;;;;;;;19.17;31.55;102062.63;16128388;19;129601;-50
2023/04/09 15:59:28;;;;;;;3.53;3.10;;;;;;;19.18;31.42;102069.88;16120749;19;129895;-46
2023/04/09 16:04:50;;;;;;;13.45;3.67;;;;;;;19.18;31.70;102059.63;16118730;19;131450;-53
2023/04/09 16:10:13;;;;;;;5.80;3.22;;;;;;;19.19;31.54;102066.03;16122494;19;130580;-46
2023/04/09 16:15:35;;;;;;;19.35;3.35;;;;;;;19.20;31.50;102049.16;16119213;19;129851;-48
2023/04/09 16:20:57;;;;;;;16.00;3.50;;;;;;;19.23;32.27;102045.13;16120324;19;130225;-49
2023/04/09 16:26:19;;;;;;;11.52;3.10;;;;;;;19.32;32.34;102060.41;16114783;19;130517;-46
2023/04/09 16:31:41;;;;;;;11.00;2.90;;;;;;;19.38;32.90;102054.00;16117586;19;131558;-48
2023/04/09 16:37:03;;;;;;;12.70;3.42;;;;;;;19.45;33.24;102044.75;16119038;19;131807;-50
2023/04/09 16:42:26;;;;;;;17.33;2.97;;;;;;;19.53;33.72;102038.94;16113490;19;129404;-49
2023/04/09 16:47:48;;;;;;;17.63;3.58;;;;;;;19.73;33.50;102037.91;16116514;19;130040;-48
2023/04/09 16:53:13;;;;;;;12.52;3.35;;;;;;;19.97;32.49;102037.06;16116193;19;130655;-48
2023/04/09 16:58:36;;;;;;;18.25;2.92;;;;;;;20.23;32.20;102035.13;16111136;19;130371;-48
2023/04/09 17:04:00;;;;;;;11.32;2.60;;;;;;;20.39;31.74;102032.81;16115481;19;130754;-48
2023/04/09 17:09:23;;;;;;;9.50;3.00;;;;;;;20.45;31.49;102023.53;16105688;19;130502;-51
2023/04/09 17:14:45;;;;;;;14.25;3.40;;;;;;;20.40;31.56;102028.97;16112137;19;130999;-49
2023/04/09 17:20:08;;;;;;;17.13;3.33;;;;;;;20.33;31.06;102025.38;16114648;19;130009;-47
2023/04/09 17:25:30;;;;;;;16.88;3.30;;;;;;;20.26;30.93;102036.56;16115529;19;130519;-50
2023/04/09 17:30:52;;;;;;;31.65;3.67;;;;;;;20.23;31.55;102031.50;16115344;19;129993;-50
2023/04/09 17:36:17;;;;;;;17.67;3.33;;;;;;;20.21;31.78;102031.72;16113066;19;129400;-49
2023/04/09 17:41:39;;;;;;;16.02;3.85;;;;;;;20.16;31.98;102031.56;16111208;19;131740;-47
2023/04/09 17:47:01;;;;;;;21.38;3.33;;;;;;;20.12;32.34;102027.53;16113873;19;129501;-49
2023/04/09 17:52:23;;;;;;;20.13;3.20;;;;;;;20.05;32.42;102035.94;16109070;19;131248;-50
2023/04/09 17:57:45;;;;;;;13.10;3.17;;;;;;;19.98;32.68;102024.88;16112741;19;132811;-47
2023/04/09 18:03:08;;;;;;;17.05;2.97;;;;;;;19.92;32.78;102028.56;16113001;19;129549;-50
2023/04/09 18:08:30;;;;;;;19.60;2.85;;;;;;;19.90;33.00;102029.88;16113184;19;130061;-50
2023/04/09 18:13:52;;;;;;;13.75;2.95;;;;;;;19.85;32.71;102030.53;16113696;19;129214;-48
2023/04/09 18:19:14;;;;;;;17.88;3.33;;;;;;;19.76;32.58;102031.91;16114023;19;130571;-54
2023/04/09 18:24:36;;;;;;;18.35;4.32;;;;;;;19.67;31.87;102029.44;16123607;19;130210;-48
2023/04/09 18:29:58;;;;;;;9.43;3.22;;;;;;;19.72;31.31;102036.22;16127611;19;130641;-51
2023/04/09 18:35:20;;;;;;;14.82;3.55;;;;;;;19.87;30.73;102044.22;16122918;19;129547;-48
2023/04/09 18:40:43;;;;;;;12.02;3.10;;;;;;;20.04;30.55;102045.34;16126793;19;129601;-51
2023/04/09 18:46:05;;;;;;;22.30;3.45;;;;;;;20.14;30.51;102050.41;16125361;19;130722;-50
2023/04/09 18:51:27;;;;;;;21.23;3.35;;;;;;;20.26;30.30;102048.56;16129397;19;130645;-48
2023/04/09 18:56:49;;;;;;;13.45;2.40;;;;;;;20.48;30.26;102044.47;16123450;19;130294;-50
2023/04/09 19:02:11;;;;;;;12.02;2.67;;;;;;;20.79;29.97;102051.84;16126566;19;129644;-51
2023/04/09 19:07:33;;;;;;;10.18;2.45;;;;;;;21.08;29.97;102045.66;16127984;19;131159;-50
2023/04/09 19:12:55;;;;;;;18.90;2.55;;;;;;;21.22;30.23;102042.44;16127099;19;130074;-46
2023/04/09 19:18:17;;;;;;;15.77;2.95;;;;;;;21.34;30.55;102041.63;16117737;19;129429;-51
2023/04/09 19:23:40;;;;;;;28.88;2.78;;;;;;;21.47;31.12;102035.84;16123709;19;129604;-47
2023/04/09 19:29:04;;;;;;;19.40;3.10;;;;;;;21.62;31.07;102049.34;16123255;19;130610;-50
2023/04/09 19:34:25;;;;;;;29.13;3.47;;;;;;;21.66;31.05;102052.53;16124107;19;130013;-48
2023/04/09 19:39:48;;;;;;;19.25;2.65;;;;;;;21.67;31.57;102045.84;16123117;19;129585;-49
2023/04/09 19:45:10;;;;;;;10.63;2.42;;;;;;;21.66;31.79;102044.16;16122262;19;129934;-48
2023/04/09 19:50:36;;;;;;;21.63;2.75;;;;;;;21.63;31.83;102044.63;16124216;19;131556;-51
2023/04/09 19:55:58;;;;;;;19.95;2.55;;;;;;;21.60;31.87;102040.38;16124630;19;129445;-52
2023/04/09 20:01:20;;;;;;;16.48;2.15;;;;;;;21.58;31.85;102048.16;16122487;19;129608;-49
2023/04/09 20:06:43;;;;;;;9.60;2.10;;;;;;;21.56;32.28;102043.88;16122812;19;129574;-48
2023/04/09 20:12:07;;;;;;;9.85;1.60;;;;;;;21.55;32.48;102042.19;16119896;19;129857;-49
2023/04/09 20:17:29;;;;;;;8.50;1.52;;;;;;;21.54;32.73;102040.50;16118903;19;131455;-48
2023/04/09 20:22:54;;;;;;;12.00;2.40;;;;;;;21.50;32.65;102032.63;16119569;19;130864;-52
2023/04/09 20:28:17;;;;;;;7.28;1.55;;;;;;;21.45;32.94;102026.88;16121131;19;132798;-49
2023/04/09 20:33:39;;;;;;;4.35;1.63;;;;;;;21.38;33.08;102023.38;16119413;19;131995;-47
2023/04/09 20:39:01;;;;;;;6.03;1.65;;;;;;;21.33;33.32;102017.66;16118813;19;130704;-48
2023/04/09 20:44:23;;;;;;;2.55;1.30;;;;;;;21.26;33.60;102014.97;16120302;19;133484;-47
2023/04/09 20:49:46;;;;;;;6.38;1.27;;;;;;;21.20;33.74;102002.88;16117481;19;129614;-50
2023/04/09 20:55:08;;;;;;;5.05;1.10;;;;;;;21.15;33.75;102005.53;16114298;19;129611;-50
2023/04/09 21:00:30;;;;;;;5.20;1.67;;;;;;;21.10;33.98;102008.16;16116927;19;129596;-59
2023/04/09 21:05:51;;;;;;;10.82;1.65;;;;;;;21.05;33.97;102005.22;16119772;19;129620;-48
2023/04/09 21:11:14;;;;;;;7.97;1.40;;;;;;;21.00;33.97;102011.50;16118383;19;129478;-48
2023/04/09 21:16:36;;;;;;;9.77;1.42;;;;;;;20.98;34.08;102012.84;16117724;19;129586;-47
2023/04/09 21:21:58;;;;;;;11.95;1.50;;;;;;;20.95;34.18;102010.53;16117730;19;131373;-48
2023/04/09 21:27:20;;;;;;;10.38;1.60;;;;;;;20.88;34.66;102011.47;16117280;19;130343;-49
2023/04/09 21:32:41;;;;;;;10.95;1.48;;;;;;;20.84;34.64;102010.25;16109839;19;129441;-50
2023/04/09 21:38:04;;;;;;;10.05;1.40;;;;;;;20.78;34.14;102005.63;16115848;19;131524;-48
2023/04/09 21:43:29;;;;;;;7.20;1.48;;;;;;;20.70;34.44;102006.78;16114803;19;130921;-49
2023/04/09 21:48:51;;;;;;;9.68;1.98;;;;;;;20.65;34.47;102001.06;16113788;19;131969;-48
2023/04/09 21:54:13;;;;;;;6.63;1.55;;;;;;;20.62;34.68;101995.13;16112138;19;129572;-49
2023/04/09 21:59:36;;;;;;;11.23;1.30;;;;;;;20.57;34.39;101995.81;16111578;19;131642;-47
2023/04/09 22:04:58;;;;;;;15.65;1.52;;;;;;;20.52;34.36;101995.66;16114589;19;131266;-51
2023/04/09 22:10:21;;;;;;;12.27;1.95;;;;;;;20.45;34.66;101987.41;16113778;19;130412;-51
2023/04/09 22:15:43;;;;;;;8.77;1.52;;;;;;;20.38;34.70;101995.81;16112525;19;131457;-48
2023/04/09 22:21:05;;;;;;;11.63;1.80;;;;;;;20.33;34.73;102004.03;16110681;19;129344;-47
2023/04/09 22:26:27;;;;;;;5.68;1.52;;;;;;;20.26;34.57;101987.44;16116334;19;130587;-46
2023/04/09 22:31:49;;;;;;;7.18;1.50;;;;;;;20.20;34.58;101988.34;16112156;19;130897;-49
2023/04/09 22:37:11;;;;;;;6.30;1.73;;;;;;;20.16;34.67;101989.03;16105855;19;129554;-47
2023/04/09 22:42:34;;;;;;;5.05;1.20;;;;;;;20.12;34.93;101994.22;16109445;19;130132;-50
2023/04/09 22:47:56;;;;;;;2.88;1.30;;;;;;;20.09;34.99;101991.88;16112279;19;130140;-51
2023/04/09 22:53:18;;;;;;;3.72;1.27;;;;;;;20.04;34.39;101983.41;16109985;19;130761;-48
2023/04/09 22:58:40;;;;;;;2.15;1.10;;;;;;;19.99;34.73;101989.63;16108932;19;130056;-48
2023/04/09 23:04:02;;;;;;;3.30;1.60;;;;;;;19.96;34.54;101990.91;16108838;19;129258;-50
2023/04/09 23:09:24;;;;;;;3.20;1.20;;;;;;;19.90;34.40;102005.72;16124652;19;130171;-51
2023/04/09 23:14:46;;;;;;;4.88;1.75;;;;;;;19.87;34.63;102010.91;16121493;19;130073;-46
2023/04/09 23:20:12;;;;;;;1.60;1.30;;;;;;;19.84;34.46;102028.84;16124513;19;129920;-50
2023/04/09 23:25:34;;;;;;;3.40;1.35;;;;;;;19.81;34.51;102012.66;16120649;19;129498;-52
2023/04/09 23:30:56;;;;;;;4.03;1.30;;;;;;;19.78;34.43;102002.00;16120997;19;131051;-48
2023/04/09 23:36:18;;;;;;;4.03;1.65;;;;;;;19.75;34.19;101992.22;16123771;19;130864;-47
2023/04/09 23:41:40;;;;;;;4.78;1.30;;;;;;;19.72;34.72;101980.69;16121286;19;129570;-51
2023/04/09 23:47:04;;;;;;;2.70;1.50;;;;;;;19.69;34.49;101980.06;16118188;19;130673;-48
2023/04/09 23:52:26;;;;;;;1.70;1.40;;;;;;;19.65;34.69;101975.19;16124611;19;130162;-49
2023/04/09 23:57:48;;;;;;;3.58;1.60;;;;;;;19.62;34.65;101970.13;16121166;19;130169;-47
